METAR Data
IDs: Format: Raw Decoded Include TAF

Data at: 1608 UTC 18 Feb 2019

METAR for:KFSW (Fort Madison Muni, IA, US)
Text:KFSW 181515Z AUTO 32006KT 10SM CLR M06/M08 A3039 RMK AO2
Temperature: -6.0°C ( 21°F)
Dewpoint: -8.0°C ( 18°F) [RH = 86%]
Pressure (altimeter):30.39 inches Hg (1029.2 mb)
Winds:from the NW (320 degrees) at 7 MPH (6 knots; 3.1 m/s)
Visibility:10 or more sm (16+ km)
Ceiling:at least 12,000 feet AGL
Clouds:sky clear below 12,000 feet AGL
QC Flag:automated observation with no human augmentation